Culloden, West Virginia
Current Conditions -  °F | °C
As of 6:54 AM on Thursday 27 Nov 2014 (Local Time) from KCRW Reporting Station
Light Snow Light Snow  
Wind Chill: 35°   Ceiling: 300
Heat Index: 35°   Visibility: 6mi
Dew Point: 33°   Wind: 3mph
Humidity: 92%   Direction: 290°WNW
Pressure: 30.06"   Gusts: NA
Location:  38.42°N, 82.07°W
Report Text: KCRW 271154Z 29003KT 6SM -SN BR OVC003 02/01 A3006 RMK AO2 RAE11 SLP184 PCPN VRY LGT P0000 60000 70027 T00170006 10022 20017 53018
Loading
Personal Weather Stations






























Interactive Weather Map New forecast layout! Learn more

10-Day Weather Forecast

Advertisements
Track Severe Weather on mobile